Indian Mound, Tennessee
Current Conditions -  °F | °C
As of 9:58 AM on Thursday 23 Oct 2014 (Local Time) from KHOP Reporting Station
Clear Clear  
Wind Chill: 53°   Ceiling: Unl
Heat Index: 53°   Visibility: 10mi
Dew Point: 44°   Wind: 13mph
Humidity: 71%   Direction: 90°E
Pressure: 30.23"   Gusts: NA
Location:  36.5°N, 87.69°W
Report Text: KHOP 231458Z AUTO 09011KT 10SM CLR 12/07 A3023 RMK AO2 SLP239 T01150065 50003
Loading
Personal Weather Stations






























Interactive Weather Map
Tropical Storm Tracking
New forecast layout! Learn more

10-Day Weather Forecast

Advertisements
Track Severe Weather on mobile